Hlavní strana
METAR-TAF:

METAR-TAF

Letiště :

Skyros, Řecko

zeměpisná šířka: 38-58-03N, zeměpisná délka: 024-29-14E, výška: 13 m

METAR: chybějící

Čas: 07:55 (05:55 UTC)

Předpověď počasí

Zpráva byla vytvořena před 55 minutami, v 05:00 UTC
Předpověď platná od 21 v 06 UTC do 21 v 15 UTC
Severoseverovýchodní vítr 15 kt s nárazy do 25 kt
Viditelnost 10 km a více
Skoro jasno ve výšce 1500 ft
Oblačno až skoro zataženo ve výšce 2500 ft

TAF: LGSY 210500Z 2106/2115 03015G25KT 9999 FEW015 BKN025

Stav a předpovědi počasí z více než 4 000 letišť (zprávy METAR a TAF).

Červené a žluté tečky na mapě představují dostupné meteorologické stanice.

Když kurzor umístíte na tečku, zobrazí se název stanice.

Pak kliknutím zobrazíte stav a předpověď počasí.

Chcete-li změnit mapu, kliknutím na zelené tlačítko se znaménkem +mapu přiblížíte, kliknutím na zelené tlačítko se znaménkem – mapu oddálíte a kliknutím na zelené šipky přejdete na sousední mapy.


METAR-TAF: